Terminal Aerodrome Forecast
Issued by NWS

Home | Current Version | Previous Version | Text Only | Print | Product List | Glossary On
Versions: 1 2 3 4 5 6 7 8 9 10 11 12 13 14 15 16 17 18 19 20 21 22 23 24 25 26 27 28 29 30 31 32 33
000
FTUS45 KLKN 070205 AAB
TAFEKO
TAF AMD
KEKO 070205Z 0702/0724 08010G19KT P6SM BKN100
     FM070300 09012KT P6SM SCT100
     FM070400 VRB05KT P6SM SCT200
     FM072100 25008G18KT P6SM VCTS BKN110CB=

USA.gov is the U.S. government's official web portal to all federal, state and local government web resources and services.